Time;durP1;ratioP1;P1;durP2;ratioP2;P2;SDS_P1;SDS_P2;PMS_P1;PMS_P2;Temp;Humidity;BMP_temperature;BMP_pressure;BME280_temperature;BME280_humidity;BME280_pressure;Samples;Min_cycle;Max_cycle;Signal;HPM_P1;HPM_P2
2023/05/31 00:02:06;;;;;;;3.63;1.95;;;;;;;;;;5008925;28;20430;-47
2023/05/31 00:04:32;;;;;;;2.67;2.03;;;;;;;;;;5015266;28;20180;-47
2023/05/31 00:06:58;;;;;;;6.80;2.28;;;;;;;;;;5010548;28;20254;-47
2023/05/31 00:09:24;;;;;;;3.30;1.90;;;;;;;;;;5014599;28;20266;-47
2023/05/31 00:11:50;;;;;;;3.10;2.10;;;;;;;;;;5014403;28;20560;-47
2023/05/31 00:14:16;;;;;;;3.63;2.22;;;;;;;;;;5015225;28;20223;-47
2023/05/31 00:16:41;;;;;;;2.10;1.65;;;;;;;;;;5012503;28;20203;-47
2023/05/31 00:19:07;;;;;;;2.95;2.00;;;;;;;;;;5008170;28;20474;-47
2023/05/31 00:21:33;;;;;;;2.50;1.80;;;;;;;;;;5007684;28;20204;-47
2023/05/31 00:23:59;;;;;;;2.92;2.00;;;;;;;;;;5014529;28;20659;-47
2023/05/31 00:26:25;;;;;;;2.30;1.90;;;;;;;;;;5013796;28;20193;-47
2023/05/31 00:28:51;;;;;;;2.88;1.98;;;;;;;;;;5012723;28;20267;-47
2023/05/31 00:31:17;;;;;;;3.58;1.88;;;;;;;;;;5009222;28;20295;-47
2023/05/31 00:33:44;;;;;;;2.42;1.80;;;;;;;;;;5012882;28;20495;-47
2023/05/31 00:36:10;;;;;;;5.22;2.00;;;;;;;;;;5014515;28;20173;-47
2023/05/31 00:38:36;;;;;;;3.90;2.15;;;;;;;;;;5014270;28;20188;-48
2023/05/31 00:41:01;;;;;;;2.50;1.80;;;;;;;;;;5013856;28;20188;-47
2023/05/31 00:43:27;;;;;;;2.75;2.10;;;;;;;;;;5010201;28;20199;-47
2023/05/31 00:45:53;;;;;;;2.22;1.73;;;;;;;;;;5013954;28;20195;-47
2023/05/31 00:48:19;;;;;;;3.05;2.00;;;;;;;;;;5016222;28;20203;-47
2023/05/31 00:50:45;;;;;;;4.32;2.00;;;;;;;;;;5005374;28;20188;-47
2023/05/31 00:53:11;;;;;;;1.95;1.70;;;;;;;;;;5013485;28;20204;-47
2023/05/31 00:55:38;;;;;;;2.38;1.67;;;;;;;;;;5013254;28;20505;-47
2023/05/31 00:58:04;;;;;;;4.63;2.20;;;;;;;;;;5010885;28;20188;-47
2023/05/31 01:00:30;;;;;;;1.92;1.50;;;;;;;;;;5010232;28;20440;-47
2023/05/31 01:03:01;;;;;;;2.83;1.92;;;;;;;;;;5015532;28;20287;-48
2023/05/31 01:05:26;;;;;;;4.75;1.98;;;;;;;;;;5005663;28;20173;-47
2023/05/31 01:07:52;;;;;;;2.47;1.60;;;;;;;;;;5013416;28;20514;-47
2023/05/31 01:10:19;;;;;;;2.92;1.40;;;;;;;;;;5006598;28;20216;-47
2023/05/31 01:12:48;;;;;;;2.72;1.80;;;;;;;;;;5007624;28;20603;-47
2023/05/31 01:15:17;;;;;;;2.05;1.58;;;;;;;;;;5014101;28;20185;-47
2023/05/31 01:17:55;;;;;;;4.65;1.90;;;;;;;;;;5029891;28;20191;-47
2023/05/31 01:20:24;;;;;;;1.98;1.73;;;;;;;;;;5014309;28;20199;-47
2023/05/31 01:23:09;;;;;;;2.05;1.70;;;;;;;;;;5013703;28;20238;-47
2023/05/31 01:25:35;;;;;;;4.85;1.80;;;;;;;;;;5011876;28;20184;-47
2023/05/31 01:28:03;;;;;;;2.00;1.80;;;;;;;;;;5013477;28;20431;-47
2023/05/31 01:30:30;;;;;;;2.30;1.75;;;;;;;;;;5008796;28;20185;-47
2023/05/31 01:32:57;;;;;;;2.78;2.05;;;;;;;;;;5012004;28;20199;-47
2023/05/31 01:35:23;;;;;;;2.70;1.70;;;;;;;;;;5007190;28;20189;-47
2023/05/31 01:37:50;;;;;;;2.33;1.80;;;;;;;;;;5009476;28;20184;-47
2023/05/31 01:40:16;;;;;;;3.92;2.13;;;;;;;;;;5007945;28;20339;-47
2023/05/31 01:42:44;;;;;;;3.88;1.90;;;;;;;;;;5012051;28;20203;-47
2023/05/31 01:45:10;;;;;;;2.17;1.50;;;;;;;;;;5013758;28;20467;-47
2023/05/31 01:47:37;;;;;;;3.08;1.83;;;;;;;;;;5028791;28;20208;-48
2023/05/31 01:50:03;;;;;;;3.47;1.70;;;;;;;;;;5011013;28;20188;-47
2023/05/31 01:52:30;;;;;;;2.70;1.63;;;;;;;;;;5014951;28;20177;-47
2023/05/31 01:54:56;;;;;;;2.95;1.77;;;;;;;;;;5014124;28;20218;-47
2023/05/31 01:57:22;;;;;;;1.95;1.50;;;;;;;;;;5007080;28;20457;-47
2023/05/31 01:59:48;;;;;;;2.00;1.70;;;;;;;;;;5010111;28;20223;-47
2023/05/31 02:02:14;;;;;;;1.90;1.60;;;;;;;;;;5004144;28;20228;-46
2023/05/31 02:04:40;;;;;;;4.97;1.75;;;;;;;;;;5010366;28;20208;-47
2023/05/31 02:07:08;;;;;;;2.83;1.60;;;;;;;;;;5012952;28;20485;-47
2023/05/31 02:09:34;;;;;;;2.90;1.70;;;;;;;;;;5012746;28;20200;-47
2023/05/31 02:12:00;;;;;;;3.10;1.65;;;;;;;;;;5002574;28;20187;-47
2023/05/31 02:14:26;;;;;;;2.63;1.88;;;;;;;;;;5011193;28;20299;-47
2023/05/31 02:16:52;;;;;;;2.97;1.60;;;;;;;;;;5011953;28;20245;-47
2023/05/31 02:19:19;;;;;;;3.17;1.38;;;;;;;;;;5009731;28;20189;-47
2023/05/31 02:21:45;;;;;;;2.15;1.70;;;;;;;;;;5012069;28;20180;-47
2023/05/31 02:24:11;;;;;;;2.75;1.40;;;;;;;;;;5008233;28;20438;-47
2023/05/31 02:26:36;;;;;;;1.90;1.63;;;;;;;;;;5012273;28;20189;-47
2023/05/31 02:29:03;;;;;;;4.25;1.65;;;;;;;;;;5011949;28;20627;-47
2023/05/31 02:31:28;;;;;;;2.63;1.58;;;;;;;;;;5007069;28;20185;-47
2023/05/31 02:33:54;;;;;;;4.22;1.55;;;;;;;;;;5011576;28;20611;-47
2023/05/31 02:36:20;;;;;;;3.20;1.80;;;;;;;;;;5013816;28;20263;-48
2023/05/31 02:38:46;;;;;;;4.25;1.60;;;;;;;;;;5008495;28;20231;-47
2023/05/31 02:41:14;;;;;;;2.60;1.65;;;;;;;;;;5004056;28;20193;-47
2023/05/31 02:43:40;;;;;;;3.33;1.70;;;;;;;;;;5012851;28;20208;-47
2023/05/31 02:46:06;;;;;;;2.58;1.58;;;;;;;;;;5009779;28;20181;-47
2023/05/31 02:48:32;;;;;;;2.42;1.73;;;;;;;;;;5025418;28;20180;-47
2023/05/31 02:50:58;;;;;;;2.03;1.65;;;;;;;;;;5012981;28;20456;-47
2023/05/31 02:53:26;;;;;;;1.65;1.50;;;;;;;;;;5001092;28;20227;-47
2023/05/31 02:55:52;;;;;;;2.60;1.70;;;;;;;;;;5008348;28;20552;-47
2023/05/31 02:58:18;;;;;;;3.78;1.67;;;;;;;;;;5014940;28;20212;-47
2023/05/31 03:00:44;;;;;;;3.45;1.77;;;;;;;;;;5013070;28;20184;-47
2023/05/31 03:03:12;;;;;;;4.80;1.60;;;;;;;;;;5005812;28;20259;-47
2023/05/31 03:05:39;;;;;;;2.72;1.73;;;;;;;;;;5010782;28;20181;-48
2023/05/31 03:08:05;;;;;;;2.72;2.17;;;;;;;;;;5017077;28;20191;-47
2023/05/31 03:10:31;;;;;;;2.50;1.83;;;;;;;;;;5015526;28;20188;-47
2023/05/31 03:12:57;;;;;;;2.53;2.00;;;;;;;;;;5016640;28;20208;-47
2023/05/31 03:15:23;;;;;;;2.20;1.50;;;;;;;;;;5014711;28;20311;-47
2023/05/31 03:17:49;;;;;;;2.03;1.70;;;;;;;;;;5016374;28;20191;-47
2023/05/31 03:20:15;;;;;;;3.35;1.58;;;;;;;;;;5014926;28;20200;-48
2023/05/31 03:22:41;;;;;;;3.65;1.50;;;;;;;;;;5012751;28;20185;-47
2023/05/31 03:25:07;;;;;;;3.20;1.75;;;;;;;;;;5014774;28;20552;-47
2023/05/31 03:27:33;;;;;;;2.08;1.42;;;;;;;;;;5010001;28;20190;-47
2023/05/31 03:30:00;;;;;;;2.22;1.50;;;;;;;;;;5012168;28;20239;-47
2023/05/31 03:32:26;;;;;;;1.65;1.40;;;;;;;;;;5009428;28;20193;-47
2023/05/31 03:34:52;;;;;;;1.92;1.52;;;;;;;;;;5014769;28;20238;-47
2023/05/31 03:37:17;;;;;;;2.63;1.63;;;;;;;;;;5032296;28;20568;-47
2023/05/31 03:39:43;;;;;;;3.20;1.80;;;;;;;;;;5010666;28;20187;-48
2023/05/31 03:42:09;;;;;;;2.13;1.58;;;;;;;;;;5013265;28;20260;-47
2023/05/31 03:44:35;;;;;;;2.83;1.70;;;;;;;;;;5013770;28;20485;-47
2023/05/31 03:47:01;;;;;;;2.20;1.38;;;;;;;;;;5016330;28;20236;-47
2023/05/31 03:49:27;;;;;;;1.58;1.40;;;;;;;;;;5015466;28;20181;-46
2023/05/31 03:51:53;;;;;;;1.98;1.55;;;;;;;;;;5015619;28;20433;-47
2023/05/31 03:54:19;;;;;;;2.47;1.67;;;;;;;;;;5013122;28;20212;-47
2023/05/31 03:56:45;;;;;;;2.55;1.58;;;;;;;;;;5008077;28;20491;-47
2023/05/31 03:59:11;;;;;;;2.38;1.40;;;;;;;;;;5012330;28;20185;-47
2023/05/31 04:01:37;;;;;;;2.92;1.52;;;;;;;;;;5015568;28;20263;-47
2023/05/31 04:04:03;;;;;;;6.00;2.05;;;;;;;;;;5015778;28;20183;-47
2023/05/31 04:06:28;;;;;;;4.07;2.20;;;;;;;;;;5031239;28;20273;-52
2023/05/31 04:08:55;;;;;;;4.35;2.45;;;;;;;;;;5009931;28;20192;-50
2023/05/31 04:11:21;;;;;;;4.30;2.22;;;;;;;;;;5009747;28;20212;-52
2023/05/31 04:13:46;;;;;;;2.88;1.90;;;;;;;;;;5015029;28;20290;-51
2023/05/31 04:16:12;;;;;;;5.38;1.90;;;;;;;;;;5028236;28;20246;-54
2023/05/31 04:18:38;;;;;;;2.88;1.98;;;;;;;;;;5015228;28;20274;-49
2023/05/31 04:21:04;;;;;;;7.88;2.03;;;;;;;;;;5014984;28;20203;-50
2023/05/31 04:23:30;;;;;;;4.60;2.20;;;;;;;;;;5015539;28;20272;-51
2023/05/31 04:25:57;;;;;;;3.15;1.98;;;;;;;;;;5006905;28;20272;-52
2023/05/31 04:28:23;;;;;;;5.40;2.13;;;;;;;;;;5011062;28;20188;-51
2023/05/31 04:30:51;;;;;;;7.95;2.13;;;;;;;;;;5012224;28;20194;-51
2023/05/31 04:33:18;;;;;;;5.57;2.15;;;;;;;;;;5013409;28;20236;-51
2023/05/31 04:35:44;;;;;;;7.03;2.30;;;;;;;;;;5009385;28;20181;-51
2023/05/31 04:38:10;;;;;;;7.03;2.13;;;;;;;;;;5013580;28;20185;-49
2023/05/31 04:40:36;;;;;;;4.25;2.05;;;;;;;;;;5003217;28;20185;-49
2023/05/31 04:43:02;;;;;;;9.20;2.35;;;;;;;;;;5006469;28;20184;-52
2023/05/31 04:45:29;;;;;;;7.82;2.33;;;;;;;;;;5019594;28;20254;-51
2023/05/31 04:47:55;;;;;;;11.65;4.15;;;;;;;;;;5010742;28;20219;-51
2023/05/31 04:50:21;;;;;;;31.35;12.32;;;;;;;;;;5007240;28;20520;-51
2023/05/31 04:52:47;;;;;;;54.97;27.42;;;;;;;;;;5007287;28;20184;-51
2023/05/31 04:55:13;;;;;;;37.65;19.13;;;;;;;;;;5008040;28;20458;-51
2023/05/31 04:57:39;;;;;;;42.80;20.83;;;;;;;;;;5007546;28;20220;-51
2023/05/31 05:00:09;;;;;;;48.97;22.13;;;;;;;;;;5003171;28;20828;-51
2023/05/31 05:02:36;;;;;;;52.30;21.92;;;;;;;;;;5006140;28;20429;-51
2023/05/31 05:05:04;;;;;;;33.72;16.63;;;;;;;;;;5005098;28;20192;-51
2023/05/31 05:07:30;;;;;;;32.83;14.20;;;;;;;;;;5007303;28;20597;-51
2023/05/31 05:09:56;;;;;;;29.75;14.15;;;;;;;;;;5002266;28;20225;-51
2023/05/31 05:12:21;;;;;;;28.40;11.77;;;;;;;;;;5002240;28;20189;-51
2023/05/31 05:14:47;;;;;;;22.10;10.38;;;;;;;;;;5005454;28;20663;-51
2023/05/31 05:17:13;;;;;;;19.05;10.02;;;;;;;;;;5012618;28;20492;-52
2023/05/31 05:19:39;;;;;;;20.67;10.63;;;;;;;;;;5008748;28;20200;-51
2023/05/31 05:22:05;;;;;;;16.92;8.45;;;;;;;;;;5007638;28;20247;-51
2023/05/31 05:24:31;;;;;;;15.32;7.80;;;;;;;;;;5022470;28;20572;-51
2023/05/31 05:26:57;;;;;;;12.88;7.68;;;;;;;;;;5005348;28;20184;-51
2023/05/31 05:29:23;;;;;;;14.50;7.45;;;;;;;;;;5007402;28;20187;-52
2023/05/31 05:31:49;;;;;;;10.95;6.78;;;;;;;;;;5008033;28;20458;-51
2023/05/31 05:34:15;;;;;;;13.02;8.02;;;;;;;;;;5014076;28;20208;-51
2023/05/31 05:36:41;;;;;;;13.43;7.35;;;;;;;;;;5012223;28;20183;-51
2023/05/31 05:39:07;;;;;;;16.10;7.20;;;;;;;;;;5013220;28;20172;-52
2023/05/31 05:41:33;;;;;;;11.85;6.22;;;;;;;;;;5013942;28;20181;-52
2023/05/31 05:43:59;;;;;;;11.60;6.70;;;;;;;;;;5014132;28;20584;-52
2023/05/31 05:46:25;;;;;;;14.45;6.35;;;;;;;;;;5014216;28;20203;-51
2023/05/31 05:48:51;;;;;;;11.75;5.28;;;;;;;;;;5011777;28;20187;-51
2023/05/31 05:51:17;;;;;;;12.32;5.25;;;;;;;;;;5011074;28;20200;-51
2023/05/31 05:53:43;;;;;;;10.35;5.13;;;;;;;;;;5026515;28;20208;-52
2023/05/31 05:56:11;;;;;;;9.73;5.43;;;;;;;;;;5014245;28;20184;-51
2023/05/31 05:58:37;;;;;;;8.88;5.00;;;;;;;;;;5014312;28;20187;-51
2023/05/31 06:01:03;;;;;;;9.25;5.00;;;;;;;;;;5012685;28;20477;-51
2023/05/31 06:03:30;;;;;;;7.07;4.70;;;;;;;;;;5013458;28;20588;-51
2023/05/31 06:05:56;;;;;;;8.65;4.38;;;;;;;;;;5013566;28;20443;-51
2023/05/31 06:08:22;;;;;;;6.03;4.20;;;;;;;;;;5009550;28;20192;-51
2023/05/31 06:10:47;;;;;;;9.00;3.90;;;;;;;;;;5013256;28;20267;-51
2023/05/31 06:13:13;;;;;;;6.50;3.50;;;;;;;;;;5005237;28;20279;-52
2023/05/31 06:15:39;;;;;;;10.88;4.35;;;;;;;;;;5012807;28;20180;-52
2023/05/31 06:18:05;;;;;;;6.88;4.45;;;;;;;;;;5009665;28;20181;-51
2023/05/31 06:20:31;;;;;;;7.32;3.75;;;;;;;;;;5013182;28;20536;-52
2023/05/31 06:22:57;;;;;;;7.10;3.63;;;;;;;;;;5012520;28;20242;-51
2023/05/31 06:25:23;;;;;;;6.20;3.50;;;;;;;;;;5010086;28;20181;-52
2023/05/31 06:27:49;;;;;;;8.43;3.65;;;;;;;;;;5007125;28;20546;-51
2023/05/31 06:30:15;;;;;;;6.43;3.33;;;;;;;;;;5013150;28;20195;-51
2023/05/31 06:32:41;;;;;;;7.07;3.25;;;;;;;;;;5016115;28;20259;-51
2023/05/31 06:35:08;;;;;;;5.75;3.03;;;;;;;;;;5017025;28;20573;-51
2023/05/31 06:37:34;;;;;;;3.63;2.70;;;;;;;;;;5013797;28;20191;-51
2023/05/31 06:40:00;;;;;;;7.50;3.72;;;;;;;;;;5016511;28;20187;-51
2023/05/31 06:42:26;;;;;;;4.68;2.83;;;;;;;;;;5020506;28;20192;-51
2023/05/31 06:44:52;;;;;;;6.97;3.20;;;;;;;;;;5024658;28;20444;-51
2023/05/31 06:47:18;;;;;;;3.55;2.60;;;;;;;;;;5008370;28;20195;-51
2023/05/31 06:49:44;;;;;;;4.28;2.83;;;;;;;;;;5014914;28;20533;-51
2023/05/31 06:52:12;;;;;;;5.18;2.97;;;;;;;;;;5015467;28;20203;-51
2023/05/31 06:54:38;;;;;;;3.47;2.50;;;;;;;;;;5014829;28;20219;-51
2023/05/31 06:57:05;;;;;;;5.68;2.83;;;;;;;;;;5015194;28;20181;-51
2023/05/31 06:59:31;;;;;;;5.97;3.03;;;;;;;;;;5009435;28;20272;-51
2023/05/31 07:01:57;;;;;;;4.85;2.42;;;;;;;;;;5010685;28;20526;-51
2023/05/31 07:04:23;;;;;;;4.13;2.90;;;;;;;;;;5007741;28;20211;-51
2023/05/31 07:06:49;;;;;;;4.88;2.78;;;;;;;;;;5011960;28;20191;-51
2023/05/31 07:09:15;;;;;;;4.82;2.75;;;;;;;;;;5014052;28;20201;-51
2023/05/31 07:11:41;;;;;;;4.53;2.78;;;;;;;;;;5010372;28;20208;-51
2023/05/31 07:14:07;;;;;;;3.80;2.30;;;;;;;;;;5014979;28;20231;-51
2023/05/31 07:16:33;;;;;;;5.13;2.63;;;;;;;;;;5007713;28;20189;-51
2023/05/31 07:18:59;;;;;;;3.90;2.13;;;;;;;;;;5009076;28;20600;-51
2023/05/31 07:21:25;;;;;;;3.80;2.00;;;;;;;;;;5010489;28;20189;-51
2023/05/31 07:23:51;;;;;;;3.63;2.17;;;;;;;;;;5014388;28;20203;-51
2023/05/31 07:26:17;;;;;;;3.53;2.17;;;;;;;;;;5013148;28;20203;-51
2023/05/31 07:28:46;;;;;;;2.88;2.35;;;;;;;;;;5012388;28;20184;-51
2023/05/31 07:31:15;;;;;;;4.47;2.50;;;;;;;;;;5016277;28;20622;-51
2023/05/31 07:33:41;;;;;;;3.63;2.10;;;;;;;;;;5005310;28;20541;-51
2023/05/31 07:36:07;;;;;;;2.65;1.90;;;;;;;;;;5012417;28;20187;-51
2023/05/31 07:38:33;;;;;;;3.90;1.90;;;;;;;;;;5010688;28;20185;-51
2023/05/31 07:40:59;;;;;;;2.97;2.05;;;;;;;;;;5014415;28;20633;-51
2023/05/31 07:43:25;;;;;;;3.50;2.03;;;;;;;;;;5013554;28;20239;-51
2023/05/31 07:45:51;;;;;;;2.28;1.85;;;;;;;;;;5010837;28;20180;-51
2023/05/31 07:48:18;;;;;;;4.57;1.85;;;;;;;;;;5013984;28;20614;-51
2023/05/31 07:50:44;;;;;;;3.78;1.48;;;;;;;;;;5010295;28;20464;-51
2023/05/31 07:53:10;;;;;;;3.30;1.83;;;;;;;;;;5006468;28;20280;-51
2023/05/31 07:55:37;;;;;;;3.75;1.80;;;;;;;;;;5014866;28;20331;-51
2023/05/31 07:58:03;;;;;;;4.38;1.58;;;;;;;;;;5009881;28;20188;-51
2023/05/31 08:00:29;;;;;;;2.40;1.48;;;;;;;;;;5014561;28;20275;-51
2023/05/31 08:02:55;;;;;;;2.15;1.90;;;;;;;;;;5013277;28;20181;-51
2023/05/31 08:05:21;;;;;;;5.32;1.60;;;;;;;;;;5008902;28;20197;-52
2023/05/31 08:07:47;;;;;;;3.35;1.98;;;;;;;;;;5005842;28;20191;-51
2023/05/31 08:10:13;;;;;;;3.17;1.67;;;;;;;;;;5008572;28;20584;-51
2023/05/31 08:12:39;;;;;;;2.65;1.55;;;;;;;;;;5012799;28;20193;-51
2023/05/31 08:15:06;;;;;;;2.70;1.90;;;;;;;;;;5011857;28;20201;-51
2023/05/31 08:17:32;;;;;;;2.25;1.48;;;;;;;;;;5009236;28;20307;-51
2023/05/31 08:19:58;;;;;;;3.10;1.85;;;;;;;;;;5008216;28;20271;-51
2023/05/31 08:22:24;;;;;;;5.10;1.80;;;;;;;;;;5010859;28;20222;-51
2023/05/31 08:24:50;;;;;;;1.75;1.45;;;;;;;;;;5010850;28;20181;-51
2023/05/31 08:27:17;;;;;;;4.70;1.40;;;;;;;;;;5010629;28;20198;-51
2023/05/31 08:29:43;;;;;;;5.35;1.70;;;;;;;;;;5013695;28;20181;-53
2023/05/31 08:32:09;;;;;;;2.50;1.70;;;;;;;;;;5004916;28;20186;-51
2023/05/31 08:34:35;;;;;;;5.72;1.90;;;;;;;;;;5005088;28;20220;-51
2023/05/31 08:37:01;;;;;;;8.18;1.88;;;;;;;;;;5001076;28;20177;-55
2023/05/31 08:39:27;;;;;;;5.90;1.90;;;;;;;;;;5011971;28;20182;-51
2023/05/31 08:42:01;;;;;;;5.28;1.90;;;;;;;;;;5010325;28;20522;-50
2023/05/31 08:44:28;;;;;;;3.40;1.77;;;;;;;;;;4996702;28;20185;-52
2023/05/31 08:46:57;;;;;;;6.35;1.90;;;;;;;;;;5012952;28;20216;-51
2023/05/31 08:49:23;;;;;;;5.78;1.77;;;;;;;;;;5007922;28;20185;-52
2023/05/31 08:51:49;;;;;;;3.63;1.70;;;;;;;;;;5003636;28;20195;-51
2023/05/31 08:54:17;;;;;;;5.18;1.77;;;;;;;;;;5001200;28;20204;-50
2023/05/31 08:56:43;;;;;;;5.45;1.50;;;;;;;;;;5003800;28;20207;-50
2023/05/31 08:59:11;;;;;;;8.75;2.22;;;;;;;;;;5000347;28;20208;-50
2023/05/31 09:01:38;;;;;;;16.00;2.42;;;;;;;;;;5007490;28;20238;-52
2023/05/31 09:04:05;;;;;;;9.05;1.70;;;;;;;;;;5008995;28;20267;-50
2023/05/31 09:06:31;;;;;;;7.05;1.70;;;;;;;;;;5003397;28;20185;-50
2023/05/31 09:08:57;;;;;;;8.68;1.83;;;;;;;;;;5008718;28;20514;-50
2023/05/31 09:11:23;;;;;;;4.03;1.65;;;;;;;;;;5010761;28;20579;-50
2023/05/31 09:13:50;;;;;;;3.35;1.80;;;;;;;;;;5007218;28;20857;-50
2023/05/31 09:16:16;;;;;;;5.30;1.60;;;;;;;;;;5010967;28;20476;-50
2023/05/31 09:18:42;;;;;;;3.92;1.40;;;;;;;;;;5011716;28;20181;-50
2023/05/31 09:21:09;;;;;;;5.43;1.40;;;;;;;;;;5006287;28;20235;-51
2023/05/31 09:23:35;;;;;;;4.50;1.85;;;;;;;;;;5009031;28;20196;-50
2023/05/31 09:26:01;;;;;;;2.63;1.60;;;;;;;;;;5008528;28;20181;-52
2023/05/31 09:28:27;;;;;;;3.83;1.50;;;;;;;;;;5007041;28;20605;-50
2023/05/31 09:31:03;;;;;;;2.50;1.40;;;;;;;;;;5005704;28;20185;-50
2023/05/31 09:33:40;;;;;;;2.95;1.50;;;;;;;;;;5001205;28;20248;-53
2023/05/31 09:36:06;;;;;;;3.72;1.40;;;;;;;;;;4993464;28;20251;-51
2023/05/31 09:38:33;;;;;;;4.32;1.92;;;;;;;;;;5001403;28;20178;-51
2023/05/31 09:41:12;;;;;;;3.15;1.50;;;;;;;;;;4994158;28;20281;-50
2023/05/31 09:43:41;;;;;;;3.90;1.70;;;;;;;;;;5001832;28;20524;-50
2023/05/31 09:46:17;;;;;;;6.68;1.35;;;;;;;;;;5003775;28;20188;-51
2023/05/31 09:48:44;;;;;;;3.22;1.63;;;;;;;;;;4994512;28;20239;-51
2023/05/31 09:51:11;;;;;;;2.17;1.42;;;;;;;;;;4994057;28;20495;-51
2023/05/31 09:53:38;;;;;;;5.03;1.70;;;;;;;;;;4994095;28;20217;-50
2023/05/31 09:56:08;;;;;;;2.38;2.03;;;;;;;;;;4998222;28;20181;-50
2023/05/31 09:58:34;;;;;;;3.10;1.58;;;;;;;;;;5002535;28;20176;-50
2023/05/31 10:01:00;;;;;;;5.93;1.60;;;;;;;;;;5013801;28;20468;-51
2023/05/31 10:03:27;;;;;;;3.30;1.67;;;;;;;;;;5021188;28;20275;-50
2023/05/31 10:05:53;;;;;;;3.00;1.50;;;;;;;;;;5014909;28;20206;-51
2023/05/31 10:08:20;;;;;;;4.93;1.70;;;;;;;;;;5016582;28;20552;-50
2023/05/31 10:10:45;;;;;;;7.55;1.60;;;;;;;;;;5014152;28;20267;-50
2023/05/31 10:13:14;;;;;;;1.92;1.35;;;;;;;;;;5011049;28;20274;-50
2023/05/31 10:15:41;;;;;;;3.47;1.42;;;;;;;;;;5007560;28;20169;-50
2023/05/31 10:18:10;;;;;;;1.83;1.08;;;;;;;;;;5016588;28;20239;-50
2023/05/31 10:20:40;;;;;;;6.82;1.25;;;;;;;;;;5015232;28;20639;-50
2023/05/31 10:23:08;;;;;;;2.67;1.23;;;;;;;;;;5015708;28;20180;-50
2023/05/31 10:25:47;;;;;;;3.80;1.65;;;;;;;;;;5016410;28;20552;-50
2023/05/31 10:28:15;;;;;;;3.33;1.75;;;;;;;;;;5016522;28;20196;-52
2023/05/31 10:30:42;;;;;;;3.92;1.65;;;;;;;;;;5016077;28;20188;-52
2023/05/31 10:33:11;;;;;;;2.65;1.50;;;;;;;;;;5016968;28;20571;-51
2023/05/31 10:35:37;;;;;;;3.00;1.55;;;;;;;;;;5012641;28;20185;-51
2023/05/31 10:38:03;;;;;;;2.53;1.50;;;;;;;;;;5016395;28;20456;-51
2023/05/31 10:40:38;;;;;;;3.20;1.33;;;;;;;;;;5013293;28;20574;-49
2023/05/31 10:43:08;;;;;;;2.83;1.70;;;;;;;;;;5016716;28;20179;-51
2023/05/31 10:45:36;;;;;;;2.70;1.23;;;;;;;;;;5016876;28;20185;-50
2023/05/31 10:48:29;;;;;;;2.35;1.50;;;;;;;;;;5016204;28;20188;-50
2023/05/31 10:50:55;;;;;;;1.88;1.40;;;;;;;;;;5009357;28;20220;-51
2023/05/31 10:53:21;;;;;;;3.80;1.48;;;;;;;;;;5025011;28;20279;-52
2023/05/31 10:55:47;;;;;;;3.13;1.63;;;;;;;;;;5011253;28;20560;-51
2023/05/31 10:58:29;;;;;;;5.85;1.35;;;;;;;;;;5015554;28;20256;-50
2023/05/31 11:00:56;;;;;;;5.50;1.48;;;;;;;;;;5009933;28;20603;-55
2023/05/31 11:03:25;;;;;;;6.10;1.75;;;;;;;;;;5012895;28;20258;-51
2023/05/31 11:05:55;;;;;;;2.47;1.45;;;;;;;;;;5012217;28;20280;-50
2023/05/31 11:08:21;;;;;;;2.50;1.50;;;;;;;;;;5011409;28;20565;-50
2023/05/31 11:10:48;;;;;;;3.30;1.23;;;;;;;;;;5003690;28;20594;-50
2023/05/31 11:13:14;;;;;;;2.63;1.58;;;;;;;;;;5010495;28;20775;-50
2023/05/31 11:15:44;;;;;;;3.97;1.40;;;;;;;;;;5009904;28;20188;-50
2023/05/31 11:18:14;;;;;;;14.98;3.47;;;;;;;;;;5012451;28;20187;-51
2023/05/31 11:20:40;;;;;;;6.55;1.50;;;;;;;;;;5012544;28;20195;-50
2023/05/31 11:23:23;;;;;;;6.88;2.15;;;;;;;;;;5009081;28;20181;-50
2023/05/31 11:26:08;;;;;;;4.20;1.35;;;;;;;;;;5013836;28;20183;-50
2023/05/31 11:28:55;;;;;;;2.88;1.38;;;;;;;;;;5012117;28;20454;-50
2023/05/31 11:31:39;;;;;;;4.00;1.60;;;;;;;;;;5009769;28;20231;-50
2023/05/31 11:34:24;;;;;;;3.83;1.40;;;;;;;;;;5015395;28;20657;-50
2023/05/31 11:36:50;;;;;;;5.47;1.50;;;;;;;;;;5012705;28;20184;-51
2023/05/31 11:39:16;;;;;;;3.63;1.10;;;;;;;;;;5014151;28;20238;-50
2023/05/31 11:41:43;;;;;;;3.72;1.52;;;;;;;;;;5014538;28;20181;-50
2023/05/31 11:44:11;;;;;;;4.15;1.70;;;;;;;;;;5013247;28;20188;-52
2023/05/31 11:46:40;;;;;;;2.13;1.30;;;;;;;;;;5015907;28;20280;-50
2023/05/31 11:49:09;;;;;;;4.68;1.30;;;;;;;;;;5014476;28;20635;-50
2023/05/31 11:51:36;;;;;;;6.47;1.50;;;;;;;;;;5015609;28;20187;-50
2023/05/31 11:54:03;;;;;;;1.73;1.17;;;;;;;;;;5014575;28;20270;-51
2023/05/31 11:56:36;;;;;;;2.97;1.30;;;;;;;;;;5014124;28;20181;-50
2023/05/31 11:59:02;;;;;;;2.85;1.02;;;;;;;;;;5015153;28;20204;-51
2023/05/31 12:01:28;;;;;;;4.10;1.20;;;;;;;;;;5013816;28;20181;-49
2023/05/31 12:03:58;;;;;;;3.33;1.48;;;;;;;;;;5013039;28;20189;-49
2023/05/31 12:06:25;;;;;;;3.67;1.42;;;;;;;;;;5014151;28;20173;-51
2023/05/31 12:08:54;;;;;;;21.98;2.33;;;;;;;;;;5010792;28;20881;-50
2023/05/31 12:11:21;;;;;;;10.98;1.95;;;;;;;;;;5029537;28;20560;-50
2023/05/31 12:13:47;;;;;;;6.03;1.73;;;;;;;;;;5009066;28;20216;-51
2023/05/31 12:16:13;;;;;;;9.23;2.00;;;;;;;;;;5011048;28;20265;-50
2023/05/31 12:18:39;;;;;;;8.10;2.30;;;;;;;;;;5014815;28;20286;-50
2023/05/31 12:21:09;;;;;;;8.13;1.90;;;;;;;;;;5012452;28;20251;-52
2023/05/31 12:23:56;;;;;;;7.13;1.83;;;;;;;;;;5014678;28;20516;-51
2023/05/31 12:26:22;;;;;;;3.88;2.05;;;;;;;;;;5011073;28;20204;-50
2023/05/31 12:28:48;;;;;;;4.50;1.33;;;;;;;;;;5002805;28;20189;-50
2023/05/31 12:31:24;;;;;;;4.20;1.70;;;;;;;;;;5012126;28;20188;-50
2023/05/31 12:33:59;;;;;;;11.82;1.95;;;;;;;;;;5007419;28;20218;-50
2023/05/31 12:36:26;;;;;;;6.57;2.05;;;;;;;;;;5005436;28;20186;-50
2023/05/31 12:38:56;;;;;;;5.07;1.40;;;;;;;;;;5013622;28;20184;-50
2023/05/31 12:41:22;;;;;;;4.90;1.80;;;;;;;;;;5006873;28;20193;-50
2023/05/31 12:43:48;;;;;;;2.67;1.42;;;;;;;;;;5009406;28;20185;-50
2023/05/31 12:46:18;;;;;;;4.35;1.60;;;;;;;;;;5009444;28;20220;-52
2023/05/31 12:48:48;;;;;;;3.42;1.35;;;;;;;;;;5011632;28;20185;-50
2023/05/31 12:51:13;;;;;;;4.50;1.77;;;;;;;;;;5007889;28;20180;-50
2023/05/31 12:53:40;;;;;;;7.15;1.50;;;;;;;;;;5019449;28;20481;-50
2023/05/31 12:56:06;;;;;;;1.83;1.45;;;;;;;;;;5010011;28;20282;-51
2023/05/31 12:58:32;;;;;;;2.63;1.40;;;;;;;;;;5000856;28;20569;-50
2023/05/31 13:00:58;;;;;;;2.67;1.35;;;;;;;;;;5008213;28;20219;-51
2023/05/31 13:03:24;;;;;;;4.72;2.03;;;;;;;;;;5013189;28;20176;-50
2023/05/31 13:05:50;;;;;;;5.20;1.40;;;;;;;;;;5015679;28;20172;-50
2023/05/31 13:08:16;;;;;;;3.45;1.30;;;;;;;;;;5014081;28;20204;-50
2023/05/31 13:10:41;;;;;;;3.95;1.60;;;;;;;;;;5007034;28;20252;-51
2023/05/31 13:13:08;;;;;;;5.73;1.47;;;;;;;;;;5008604;28;20454;-51
2023/05/31 13:15:34;;;;;;;1.40;1.30;;;;;;;;;;5013950;28;20211;-51
2023/05/31 13:18:00;;;;;;;2.05;1.30;;;;;;;;;;5012125;28;20181;-50
2023/05/31 13:20:26;;;;;;;3.35;1.30;;;;;;;;;;5013237;28;20200;-50
2023/05/31 13:22:52;;;;;;;2.55;1.45;;;;;;;;;;5029208;28;20177;-50
2023/05/31 13:25:18;;;;;;;4.55;1.27;;;;;;;;;;5014387;28;20231;-50
2023/05/31 13:27:44;;;;;;;3.90;1.35;;;;;;;;;;5014083;28;20271;-50
2023/05/31 13:30:10;;;;;;;3.20;1.20;;;;;;;;;;5010105;28;20192;-50
2023/05/31 13:32:36;;;;;;;4.85;1.30;;;;;;;;;;5006036;28;20189;-51
2023/05/31 13:35:04;;;;;;;1.75;1.23;;;;;;;;;;5008387;28;20200;-50
2023/05/31 13:37:30;;;;;;;2.72;1.30;;;;;;;;;;5000943;28;20234;-51
2023/05/31 13:39:55;;;;;;;5.57;1.38;;;;;;;;;;5011796;28;20544;-50
2023/05/31 13:42:21;;;;;;;2.80;1.42;;;;;;;;;;5013762;28;20222;-50
2023/05/31 13:44:47;;;;;;;2.78;1.52;;;;;;;;;;5013964;28;20458;-49
2023/05/31 13:47:13;;;;;;;2.22;1.35;;;;;;;;;;5009960;28;20209;-50
2023/05/31 13:49:39;;;;;;;2.20;1.15;;;;;;;;;;5006767;28;20314;-50
2023/05/31 13:52:07;;;;;;;3.25;1.40;;;;;;;;;;5012868;28;20190;-51
2023/05/31 13:54:33;;;;;;;1.40;1.30;;;;;;;;;;5007897;28;20588;-52
2023/05/31 13:56:59;;;;;;;2.50;1.55;;;;;;;;;;5012979;28;20184;-50
2023/05/31 13:59:25;;;;;;;3.08;1.20;;;;;;;;;;5012379;28;20176;-50
2023/05/31 14:01:51;;;;;;;3.42;1.23;;;;;;;;;;5009865;28;20447;-51
2023/05/31 14:04:17;;;;;;;5.47;1.27;;;;;;;;;;5009278;28;20192;-50
2023/05/31 14:06:46;;;;;;;2.80;1.30;;;;;;;;;;5008315;28;20184;-50
2023/05/31 14:09:12;;;;;;;2.03;1.20;;;;;;;;;;5010965;28;20186;-50
2023/05/31 14:11:38;;;;;;;2.30;1.17;;;;;;;;;;5013368;28;20188;-51
2023/05/31 14:14:03;;;;;;;3.85;1.40;;;;;;;;;;5006883;28;20219;-50
2023/05/31 14:16:30;;;;;;;2.25;1.27;;;;;;;;;;5012621;28;20179;-51
2023/05/31 14:18:56;;;;;;;2.42;1.40;;;;;;;;;;5015544;28;20219;-51
2023/05/31 14:21:22;;;;;;;2.65;1.25;;;;;;;;;;5007278;28;20188;-51
2023/05/31 14:23:48;;;;;;;4.60;1.25;;;;;;;;;;5013091;28;20234;-51
2023/05/31 14:26:14;;;;;;;3.00;1.30;;;;;;;;;;5011508;28;20242;-50
2023/05/31 14:28:39;;;;;;;1.98;1.17;;;;;;;;;;5004076;28;20185;-51
2023/05/31 14:31:05;;;;;;;2.78;1.08;;;;;;;;;;5005904;28;20181;-50
2023/05/31 14:33:31;;;;;;;2.17;1.25;;;;;;;;;;5010958;28;20212;-50
2023/05/31 14:35:57;;;;;;;2.40;1.30;;;;;;;;;;5004065;28;20257;-51
2023/05/31 14:38:23;;;;;;;2.28;1.40;;;;;;;;;;5009258;28;20598;-51
2023/05/31 14:40:51;;;;;;;2.20;1.27;;;;;;;;;;5028275;28;20211;-51